Time,TemperatureF,DewpointF,PressureIn,WindDirection,WindDirectionDegrees,WindSpeedMPH,WindSpeedGustMPH,Humidity,HourlyPrecipIn,Conditions,Clouds,dailyrainin,SoftwareType,DateUTC
2013-11-11 00:08:00,42.8,40.4,30.15,SE,135,0.0,-999.0,91,-99.99,,,0.00,Acu-Link.com,2013-11-11 06:08:00,
2013-11-11 00:23:00,43.3,40.6,30.15,SSE,157,0.0,-999.0,90,-99.99,,,0.00,Acu-Link.com,2013-11-11 06:23:00,
2013-11-11 00:38:00,44.2,41.5,30.15,SSE,157,0.0,-999.0,90,-99.99,,,0.00,Acu-Link.com,2013-11-11 06:38:00,
2013-11-11 00:54:00,45.0,42.0,30.15,SSE,157,1.1,-999.0,89,-99.99,,,0.00,Acu-Link.com,2013-11-11 06:54:00,
2013-11-11 01:09:00,45.5,42.2,30.15,SSE,157,1.7,-999.0,88,-99.99,,,0.00,Acu-Link.com,2013-11-11 07:09:00,
2013-11-11 01:24:00,45.9,42.0,30.14,SSE,157,1.7,-999.0,86,-99.99,,,0.00,Acu-Link.com,2013-11-11 07:24:00,
2013-11-11 01:40:00,45.1,41.2,30.14,SSE,157,0.0,-999.0,86,-99.99,,,0.00,Acu-Link.com,2013-11-11 07:40:00,
2013-11-11 01:55:00,44.4,40.8,30.14,ESE,112,0.0,-999.0,87,-99.99,,,0.00,Acu-Link.com,2013-11-11 07:55:00,
2013-11-11 02:10:00,44.2,40.9,30.14,ESE,112,0.0,-999.0,88,-99.99,,,0.00,Acu-Link.com,2013-11-11 08:10:00,
2013-11-11 02:25:00,43.7,40.7,30.14,ESE,112,0.0,-999.0,89,-99.99,,,0.00,Acu-Link.com,2013-11-11 08:25:00,
2013-11-11 02:41:00,43.0,40.6,30.14,ESE,112,0.0,-999.0,91,-99.99,,,0.00,Acu-Link.com,2013-11-11 08:41:00,
2013-11-11 02:56:00,43.0,40.6,30.13,SE,135,0.0,-999.0,91,-99.99,,,0.00,Acu-Link.com,2013-11-11 08:56:00,
2013-11-11 03:11:00,43.0,41.1,30.13,SSE,157,1.7,-999.0,93,-99.99,,,0.00,Acu-Link.com,2013-11-11 09:11:00,
2013-11-11 03:26:00,43.5,41.6,30.13,SE,135,0.0,-999.0,93,-99.99,,,0.00,Acu-Link.com,2013-11-11 09:26:00,
2013-11-11 03:42:00,44.6,42.4,30.13,ESE,112,0.0,-999.0,92,-99.99,,,0.00,Acu-Link.com,2013-11-11 09:42:00,
2013-11-11 03:57:00,45.7,42.9,30.13,ESE,112,0.0,-999.0,90,-99.99,,,0.00,Acu-Link.com,2013-11-11 09:57:00,
2013-11-11 04:12:00,46.2,43.4,30.13,ENE,67,0.0,-999.0,90,-99.99,,,0.00,Acu-Link.com,2013-11-11 10:12:00,
2013-11-11 04:28:00,46.9,44.1,30.13,SE,135,1.7,-999.0,90,-99.99,,,0.00,Acu-Link.com,2013-11-11 10:28:00,
2013-11-11 04:43:00,47.7,44.3,30.13,ESE,112,2.7,-999.0,88,-99.99,,,0.00,Acu-Link.com,2013-11-11 10:43:00,
2013-11-11 04:58:00,48.0,44.3,30.13,SSE,157,2.7,-999.0,87,-99.99,,,0.00,Acu-Link.com,2013-11-11 10:58:00,
2013-11-11 05:14:00,48.4,44.7,30.13,SSE,157,1.7,-999.0,87,-99.99,,,0.00,Acu-Link.com,2013-11-11 11:14:00,
2013-11-11 05:29:00,48.4,44.4,30.12,SE,135,2.2,-999.0,86,-99.99,,,0.00,Acu-Link.com,2013-11-11 11:29:00,
2013-11-11 05:44:00,48.4,44.4,30.12,SSE,157,2.2,-999.0,86,-99.99,,,0.00,Acu-Link.com,2013-11-11 11:44:00,
2013-11-11 05:59:00,48.4,44.4,30.13,SE,135,1.7,-999.0,86,-99.99,,,0.00,Acu-Link.com,2013-11-11 11:59:00,
2013-11-11 06:30:00,47.1,43.4,30.13,SSE,157,0.0,-999.0,87,-99.99,,,0.00,Acu-Link.com,2013-11-11 12:30:00,
2013-11-11 06:45:00,46.8,43.4,30.13,SE,135,2.2,-999.0,88,-99.99,,,0.00,Acu-Link.com,2013-11-11 12:45:00,
2013-11-11 07:00:00,46.6,43.2,30.14,SSE,157,1.1,-999.0,88,-99.99,,,0.00,Acu-Link.com,2013-11-11 13:00:00,
2013-11-11 07:16:00,47.5,43.8,30.14,SSE,157,2.2,-999.0,87,-99.99,,,0.00,Acu-Link.com,2013-11-11 13:16:00,
2013-11-11 07:31:00,48.2,44.2,30.14,SE,135,2.2,-999.0,86,-99.99,,,0.00,Acu-Link.com,2013-11-11 13:31:00,
2013-11-11 07:46:00,49.3,44.7,30.14,SSE,157,2.2,-999.0,84,-99.99,,,0.00,Acu-Link.com,2013-11-11 13:46:00,
2013-11-11 08:02:00,50.2,44.6,30.15,SSE,157,3.2,-999.0,81,-99.99,,,0.00,Acu-Link.com,2013-11-11 14:02:00,
2013-11-11 08:17:00,50.5,45.2,30.16,SE,135,2.7,-999.0,82,-99.99,,,0.00,Acu-Link.com,2013-11-11 14:17:00,
2013-11-11 08:32:00,51.1,44.8,30.16,SE,135,3.2,-999.0,79,-99.99,,,0.00,Acu-Link.com,2013-11-11 14:32:00,
2013-11-11 08:47:00,51.8,44.5,30.15,SSE,157,3.7,-999.0,76,-99.99,,,0.00,Acu-Link.com,2013-11-11 14:47:00,
2013-11-11 09:02:00,52.5,45.2,30.15,SSE,157,2.7,-999.0,76,-99.99,,,0.00,Acu-Link.com,2013-11-11 15:02:00,
2013-11-11 09:17:00,53.6,45.2,30.16,SE,135,3.7,-999.0,73,-99.99,,,0.00,Acu-Link.com,2013-11-11 15:17:00,
2013-11-11 09:32:00,55.0,45.8,30.15,SSW,202,3.7,-999.0,71,-99.99,,,0.00,Acu-Link.com,2013-11-11 15:32:00,
2013-11-11 09:48:00,56.1,47.2,30.15,SSE,157,3.2,-999.0,72,-99.99,,,0.00,Acu-Link.com,2013-11-11 15:48:00,
2013-11-11 10:03:00,57.6,47.9,30.15,SSW,202,1.7,-999.0,70,-99.99,,,0.00,Acu-Link.com,2013-11-11 16:03:00,
2013-11-11 10:18:00,58.8,48.3,30.15,SSE,157,3.2,-999.0,68,-99.99,,,0.00,Acu-Link.com,2013-11-11 16:18:00,
2013-11-11 10:34:00,60.8,49.0,30.15,WSW,247,1.7,-999.0,65,-99.99,,,0.00,Acu-Link.com,2013-11-11 16:34:00,
2013-11-11 10:49:00,61.0,48.3,30.14,South,180,3.7,-999.0,63,-99.99,,,0.00,Acu-Link.com,2013-11-11 16:49:00,
2013-11-11 11:04:00,61.2,48.9,30.14,SW,225,3.7,-999.0,64,-99.99,,,0.00,Acu-Link.com,2013-11-11 17:04:00,
2013-11-11 11:19:00,62.1,49.4,30.13,ESE,112,2.7,-999.0,63,-99.99,,,0.00,Acu-Link.com,2013-11-11 17:19:00,
2013-11-11 11:35:00,62.6,49.8,30.13,SW,225,1.1,-999.0,63,-99.99,,,0.00,Acu-Link.com,2013-11-11 17:35:00,
2013-11-11 11:50:00,63.3,50.1,30.12,WSW,247,1.1,-999.0,62,-99.99,,,0.00,Acu-Link.com,2013-11-11 17:50:00,
2013-11-11 12:05:00,64.0,49.4,30.12,NNW,337,1.1,-999.0,59,-99.99,,,0.00,Acu-Link.com,2013-11-11 18:05:00,
2013-11-11 12:20:00,63.9,50.2,30.11,SW,225,1.1,-999.0,61,-99.99,,,0.00,Acu-Link.com,2013-11-11 18:20:00,
2013-11-11 12:35:00,65.8,50.1,30.10,NW,315,2.2,-999.0,57,-99.99,,,0.00,Acu-Link.com,2013-11-11 18:35:00,
2013-11-11 12:50:00,65.8,50.1,30.09,SSE,157,4.2,-999.0,57,-99.99,,,0.00,Acu-Link.com,2013-11-11 18:50:00,
2013-11-11 13:06:00,65.7,48.6,30.09,SSW,202,1.1,-999.0,54,-99.99,,,0.00,Acu-Link.com,2013-11-11 19:06:00,
2013-11-11 13:21:00,63.5,48.5,30.08,WSW,247,2.2,-999.0,58,-99.99,,,0.00,Acu-Link.com,2013-11-11 19:21:00,
2013-11-11 13:36:00,63.5,49.4,30.08,West,270,0.0,-999.0,60,-99.99,,,0.00,Acu-Link.com,2013-11-11 19:36:00,
2013-11-11 13:51:00,64.6,50.4,30.08,SE,135,4.7,-999.0,60,-99.99,,,0.00,Acu-Link.com,2013-11-11 19:51:00,
2013-11-11 14:07:00,64.9,50.2,30.07,SSW,202,1.7,-999.0,59,-99.99,,,0.00,Acu-Link.com,2013-11-11 20:07:00,
2013-11-11 14:22:00,64.6,49.9,30.06,SE,135,1.7,-999.0,59,-99.99,,,0.00,Acu-Link.com,2013-11-11 20:22:00,
2013-11-11 14:37:00,65.5,51.2,30.07,West,270,2.2,-999.0,60,-99.99,,,0.00,Acu-Link.com,2013-11-11 20:37:00,
2013-11-11 14:52:00,64.8,52.3,30.07,SE,135,2.7,-999.0,64,-99.99,,,0.00,Acu-Link.com,2013-11-11 20:52:00,
2013-11-11 15:08:00,66.6,52.3,30.07,NNW,337,1.7,-999.0,60,-99.99,,,0.00,Acu-Link.com,2013-11-11 21:08:00,
2013-11-11 15:23:00,66.6,52.3,30.07,West,270,1.1,-999.0,60,-99.99,,,0.00,Acu-Link.com,2013-11-11 21:23:00,
2013-11-11 15:38:00,66.2,52.3,30.07,WSW,247,1.1,-999.0,61,-99.99,,,0.00,Acu-Link.com,2013-11-11 21:38:00,
2013-11-11 15:53:00,64.9,52.8,30.07,South,180,3.2,-999.0,65,-99.99,,,0.00,Acu-Link.com,2013-11-11 21:53:00,
2013-11-11 16:09:00,64.6,53.0,30.07,South,180,0.0,-999.0,66,-99.99,,,0.00,Acu-Link.com,2013-11-11 22:09:00,
2013-11-11 16:24:00,64.4,53.2,30.07,NW,315,0.0,-999.0,67,-99.99,,,0.00,Acu-Link.com,2013-11-11 22:24:00,
2013-11-11 16:39:00,63.7,53.3,30.07,SSW,202,0.0,-999.0,69,-99.99,,,0.00,Acu-Link.com,2013-11-11 22:39:00,
2013-11-11 16:55:00,63.0,52.7,30.07,WNW,292,0.0,-999.0,69,-99.99,,,0.00,Acu-Link.com,2013-11-11 22:55:00,
2013-11-11 17:25:00,61.3,52.6,30.08,NNW,337,0.0,-999.0,73,-99.99,,,0.00,Acu-Link.com,2013-11-11 23:25:00,
2013-11-11 17:40:00,61.2,52.8,30.08,WSW,247,0.0,-999.0,74,-99.99,,,0.00,Acu-Link.com,2013-11-11 23:40:00,
2013-11-11 17:55:00,61.0,52.7,30.09,NNW,337,0.0,-999.0,74,-99.99,,,0.00,Acu-Link.com,2013-11-11 23:55:00,
2013-11-11 18:11:00,60.6,52.3,30.10,West,270,1.7,-999.0,74,-99.99,,,0.00,Acu-Link.com,2013-11-12 00:11:00,
2013-11-11 18:26:00,60.4,52.4,30.11,WNW,292,2.2,-999.0,75,-99.99,,,0.00,Acu-Link.com,2013-11-12 00:26:00,
2013-11-11 18:41:00,60.1,52.5,30.10,WNW,292,1.7,-999.0,76,-99.99,,,0.00,Acu-Link.com,2013-11-12 00:41:00,
2013-11-11 18:56:00,59.7,52.1,30.11,NNW,337,2.7,-999.0,76,-99.99,,,0.00,Acu-Link.com,2013-11-12 00:56:00,
2013-11-11 19:12:00,59.4,52.5,30.12,WNW,292,3.2,-999.0,78,-99.99,,,0.00,Acu-Link.com,2013-11-12 01:12:00,
2013-11-11 19:27:00,58.8,52.6,30.12,West,270,2.2,-999.0,80,-99.99,,,0.00,Acu-Link.com,2013-11-12 01:27:00,
2013-11-11 19:42:00,58.6,52.4,30.12,WNW,292,2.7,-999.0,80,-99.99,,,0.00,Acu-Link.com,2013-11-12 01:42:00,
2013-11-11 19:57:00,58.5,52.7,30.13,West,270,2.7,-999.0,81,-99.99,,,0.00,Acu-Link.com,2013-11-12 01:57:00,
2013-11-11 20:13:00,58.3,52.5,30.14,WNW,292,1.7,-999.0,81,-99.99,,,0.00,Acu-Link.com,2013-11-12 02:13:00,
2013-11-11 20:28:00,57.9,52.4,30.14,WNW,292,4.2,-999.0,82,-99.99,,,0.00,Acu-Link.com,2013-11-12 02:28:00,
2013-11-11 20:43:00,57.7,52.2,30.15,WNW,292,4.7,-999.0,82,-99.99,,,0.00,Acu-Link.com,2013-11-12 02:43:00,
2013-11-11 20:59:00,51.8,47.4,30.17,NW,315,8.3,-999.0,85,-99.99,,,0.00,Acu-Link.com,2013-11-12 02:59:00,
2013-11-11 21:14:00,49.3,45.6,30.19,East,90,6.3,-999.0,87,-99.99,,,0.00,Acu-Link.com,2013-11-12 03:14:00,
2013-11-11 21:29:00,47.5,43.8,30.21,NNW,337,3.2,-999.0,87,-99.99,,,0.00,Acu-Link.com,2013-11-12 03:29:00,
2013-11-11 21:44:00,46.2,42.8,30.21,North,0,7.8,-999.0,88,-99.99,,,0.00,Acu-Link.com,2013-11-12 03:44:00,
2013-11-11 21:59:00,45.3,42.3,30.23,NNE,22,4.2,-999.0,89,-99.99,,,0.00,Acu-Link.com,2013-11-12 03:59:00,
2013-11-11 22:15:00,44.6,41.6,30.24,NNE,22,4.2,-999.0,89,-99.99,,,0.00,Acu-Link.com,2013-11-12 04:15:00,
2013-11-11 22:30:00,43.7,40.4,30.25,NNE,22,6.3,-999.0,88,-99.99,,,0.00,Acu-Link.com,2013-11-12 04:30:00,
2013-11-11 22:45:00,43.2,39.9,30.25,North,0,6.8,-999.0,88,-99.99,,,0.00,Acu-Link.com,2013-11-12 04:45:00,
2013-11-11 23:00:00,42.8,39.8,30.25,West,270,4.2,-999.0,89,-99.99,,,0.00,Acu-Link.com,2013-11-12 05:00:00,
2013-11-11 23:15:00,42.1,39.1,30.27,WNW,292,4.2,-999.0,89,-99.99,,,0.00,Acu-Link.com,2013-11-12 05:15:00,
2013-11-11 23:30:00,41.4,38.4,30.28,NNW,337,3.2,-999.0,89,-99.99,,,0.00,Acu-Link.com,2013-11-12 05:30:00,
2013-11-11 23:45:00,41.2,38.2,30.28,NNW,337,7.8,-999.0,89,-99.99,,,0.00,Acu-Link.com,2013-11-12 05:45:00,